Otho, Iowa
Current Conditions -  °F | °C
As of 10:55 AM on Monday 22 Dec 2014 (Local Time) from KFOD Reporting Station
Overcast Overcast  
Wind Chill: 31°   Ceiling: 600
Heat Index: 37°   Visibility: 4mi
Dew Point: 36°   Wind: 9mph
Humidity: 93%   Direction: 130°SE
Pressure: 29.57"   Gusts: NA
Location:  42.42°N, 94.15°W
Report Text: KFOD 221655Z AUTO 13008KT 4SM OVC006 03/02 A2957 RMK AO1 P0001
Loading
Personal Weather Stations






























Interactive Weather Map New forecast layout! Learn more

10-Day Weather Forecast

Advertisements
Track Severe Weather on mobile